Time;durP1;ratioP1;P1;durP2;ratioP2;P2;SDS_P1;SDS_P2;PMS_P1;PMS_P2;Temp;Humidity;BMP_temperature;BMP_pressure;BME280_temperature;BME280_humidity;BME280_pressure;Samples;Min_cycle;Max_cycle;Signal;HPM_P1;HPM_P2
2023/12/31 00:00:58;;;;;;;4.83;4.30;;;;;;;;;;6271343;22;20411;-88
2023/12/31 00:03:24;;;;;;;8.47;3.90;;;;;;;;;;6277206;22;20392;-89
2023/12/31 00:05:50;;;;;;;4.87;3.50;;;;;;;;;;6250427;22;20841;-90
2023/12/31 00:08:16;;;;;;;8.17;4.30;;;;;;;;;;6251652;22;20427;-88
2023/12/31 00:10:42;;;;;;;6.07;3.73;;;;;;;;;;6249960;22;20695;-89
2023/12/31 00:13:12;;;;;;;22.27;11.57;;;;;;;;;;6251761;22;20451;-88
2023/12/31 00:15:38;;;;;;;5.97;4.63;;;;;;;;;;6253118;22;20892;-89
2023/12/31 00:18:04;;;;;;;4.60;3.30;;;;;;;;;;6251203;22;20377;-88
2023/12/31 00:20:30;;;;;;;3.07;2.77;;;;;;;;;;6276601;22;20361;-88
2023/12/31 00:22:57;;;;;;;5.37;2.90;;;;;;;;;;6250219;22;20389;-88
2023/12/31 00:25:23;;;;;;;4.63;2.10;;;;;;;;;;6251900;22;20468;-88
2023/12/31 00:27:49;;;;;;;3.37;2.60;;;;;;;;;;6250872;22;20420;-89
2023/12/31 00:30:15;;;;;;;4.00;2.77;;;;;;;;;;6251249;22;20881;-88
2023/12/31 00:32:41;;;;;;;3.30;2.63;;;;;;;;;;6251081;22;20381;-87
2023/12/31 00:35:08;;;;;;;4.10;2.17;;;;;;;;;;6250970;22;20383;-89
2023/12/31 00:37:34;;;;;;;3.20;2.50;;;;;;;;;;6249716;22;20687;-89
2023/12/31 00:40:00;;;;;;;2.40;2.20;;;;;;;;;;6249954;22;20464;-89
2023/12/31 00:42:26;;;;;;;2.83;2.03;;;;;;;;;;6248489;22;20786;-89
2023/12/31 00:44:52;;;;;;;3.90;2.47;;;;;;;;;;6251285;22;20845;-91
2023/12/31 00:47:18;;;;;;;5.00;2.90;;;;;;;;;;6251068;22;20861;-90
2023/12/31 00:49:44;;;;;;;11.60;2.93;;;;;;;;;;6275702;22;20409;-89
2023/12/31 00:52:10;;;;;;;3.80;2.50;;;;;;;;;;6249801;22;20385;-89
2023/12/31 00:54:36;;;;;;;3.27;2.60;;;;;;;;;;6250613;22;20434;-89
2023/12/31 00:57:02;;;;;;;2.73;2.50;;;;;;;;;;6251585;22;20389;-89
2023/12/31 00:59:28;;;;;;;5.60;2.60;;;;;;;;;;6251924;22;20382;-89
2023/12/31 01:01:54;;;;;;;4.37;2.67;;;;;;;;;;6250746;22;20447;-89
2023/12/31 01:04:21;;;;;;;4.87;3.90;;;;;;;;;;6253921;22;20854;-89
2023/12/31 01:06:47;;;;;;;2.50;2.30;;;;;;;;;;6252956;22;20411;-89
2023/12/31 01:09:13;;;;;;;4.93;2.60;;;;;;;;;;6253353;22;20904;-88
2023/12/31 01:11:39;;;;;;;2.30;2.10;;;;;;;;;;6254095;22;20385;-89
2023/12/31 01:14:05;;;;;;;4.57;2.47;;;;;;;;;;6252127;22;20470;-89
2023/12/31 01:16:31;;;;;;;3.50;2.90;;;;;;;;;;6250736;22;20386;-89
2023/12/31 01:18:57;;;;;;;3.23;2.27;;;;;;;;;;6252565;22;20373;-89
2023/12/31 01:21:23;;;;;;;3.03;2.63;;;;;;;;;;6250720;22;20406;-89
2023/12/31 01:23:49;;;;;;;2.63;2.10;;;;;;;;;;6253109;22;20700;-89
2023/12/31 01:26:15;;;;;;;2.27;1.93;;;;;;;;;;6251261;22;20381;-89
2023/12/31 01:28:41;;;;;;;2.40;1.70;;;;;;;;;;6252899;22;20421;-89
2023/12/31 01:31:07;;;;;;;2.17;1.97;;;;;;;;;;6252948;22;20909;-89
2023/12/31 01:33:36;;;;;;;3.10;2.10;;;;;;;;;;6252307;22;20431;-89
2023/12/31 01:36:02;;;;;;;2.30;2.10;;;;;;;;;;6250826;22;20416;-89
2023/12/31 01:38:27;;;;;;;2.23;2.00;;;;;;;;;;6278695;22;20385;-89
2023/12/31 01:40:54;;;;;;;3.50;3.20;;;;;;;;;;6251325;22;20397;-89
2023/12/31 01:43:20;;;;;;;2.47;2.27;;;;;;;;;;6278442;22;20365;-88
2023/12/31 01:45:46;;;;;;;3.63;2.27;;;;;;;;;;6277847;22;20443;-88
2023/12/31 01:48:12;;;;;;;4.13;3.13;;;;;;;;;;6254878;22;20865;-89
2023/12/31 01:50:38;;;;;;;8.70;2.50;;;;;;;;;;6251173;22;20448;-88
2023/12/31 01:53:04;;;;;;;5.93;2.90;;;;;;;;;;6277073;22;20443;-91
2023/12/31 01:55:30;;;;;;;3.23;2.90;;;;;;;;;;6250680;22;20762;-88
2023/12/31 01:57:56;;;;;;;2.93;2.47;;;;;;;;;;6252603;22;20381;-89
2023/12/31 02:00:22;;;;;;;4.43;2.90;;;;;;;;;;6276100;22;20385;-88
2023/12/31 02:02:49;;;;;;;3.77;3.47;;;;;;;;;;6253268;22;20881;-90
2023/12/31 02:05:15;;;;;;;3.27;2.80;;;;;;;;;;6251683;22;20475;-90
2023/12/31 02:07:41;;;;;;;23.87;4.43;;;;;;;;;;6252453;22;20908;-88
2023/12/31 02:10:07;;;;;;;8.40;3.30;;;;;;;;;;6253379;22;20431;-89
2023/12/31 02:12:33;;;;;;;4.57;2.60;;;;;;;;;;6252416;22;20397;-89
2023/12/31 02:14:59;;;;;;;3.63;3.23;;;;;;;;;;6253531;22;20760;-90
2023/12/31 02:17:25;;;;;;;5.67;3.03;;;;;;;;;;6252958;22;20384;-90
2023/12/31 02:19:51;;;;;;;4.03;2.20;;;;;;;;;;6253933;22;20381;-89
2023/12/31 02:22:17;;;;;;;2.90;2.60;;;;;;;;;;6252257;22;20480;-89
2023/12/31 02:24:49;;;;;;;2.83;2.63;;;;;;;;;;6253319;22;20385;-89
2023/12/31 02:27:15;;;;;;;2.33;2.13;;;;;;;;;;6252590;22;20381;-88
2023/12/31 02:29:41;;;;;;;2.47;2.27;;;;;;;;;;6278385;22;20447;-89
2023/12/31 02:32:07;;;;;;;2.33;2.10;;;;;;;;;;6251543;22;20369;-89
2023/12/31 02:34:33;;;;;;;3.73;1.77;;;;;;;;;;6251408;22;20809;-89
2023/12/31 02:36:59;;;;;;;3.73;2.93;;;;;;;;;;6250161;22;20396;-89
2023/12/31 02:39:26;;;;;;;3.03;2.27;;;;;;;;;;6252728;22;20833;-89
2023/12/31 02:41:52;;;;;;;2.63;1.80;;;;;;;;;;6251335;22;20853;-89
2023/12/31 02:44:18;;;;;;;3.20;2.40;;;;;;;;;;6251619;22;20392;-90
2023/12/31 02:46:44;;;;;;;2.63;2.20;;;;;;;;;;6252382;22;20373;-89
2023/12/31 02:49:11;;;;;;;4.70;3.37;;;;;;;;;;6277527;22;20761;-89
2023/12/31 02:51:37;;;;;;;1.93;1.80;;;;;;;;;;6252941;22;20861;-88
2023/12/31 02:54:03;;;;;;;13.03;2.53;;;;;;;;;;6251246;22;20394;-89
2023/12/31 02:56:29;;;;;;;2.83;2.10;;;;;;;;;;6252340;22;21223;-89
2023/12/31 02:58:55;;;;;;;2.50;1.80;;;;;;;;;;6252072;22;20374;-88
2023/12/31 03:01:21;;;;;;;3.60;2.33;;;;;;;;;;6277688;22;20373;-89
2023/12/31 03:03:47;;;;;;;3.73;2.43;;;;;;;;;;6252604;22;20377;-91
2023/12/31 03:06:14;;;;;;;2.03;1.83;;;;;;;;;;6278269;22;20679;-89
2023/12/31 03:08:40;;;;;;;3.40;2.47;;;;;;;;;;6276894;22;20413;-89
2023/12/31 03:11:09;;;;;;;4.10;2.10;;;;;;;;;;6252269;22;20377;-89
2023/12/31 03:13:35;;;;;;;1.53;1.43;;;;;;;;;;6249781;22;20451;-88
2023/12/31 03:16:07;;;;;;;2.33;1.83;;;;;;;;;;6250174;22;20782;-89
2023/12/31 03:18:33;;;;;;;1.87;1.40;;;;;;;;;;6250005;22;20809;-89
2023/12/31 03:20:59;;;;;;;2.73;2.23;;;;;;;;;;6251461;22;20389;-89
2023/12/31 03:23:25;;;;;;;5.20;1.83;;;;;;;;;;6275245;22;20365;-88
2023/12/31 03:25:51;;;;;;;1.73;1.63;;;;;;;;;;6275794;22;20397;-89
2023/12/31 03:28:17;;;;;;;2.57;1.80;;;;;;;;;;6249829;22;20908;-88
2023/12/31 03:30:43;;;;;;;2.30;1.70;;;;;;;;;;6249247;22;20373;-89
2023/12/31 03:33:09;;;;;;;2.43;2.23;;;;;;;;;;6248730;22;20373;-89
2023/12/31 03:35:35;;;;;;;3.53;1.83;;;;;;;;;;6249375;22;20385;-90
2023/12/31 03:38:02;;;;;;;1.97;1.70;;;;;;;;;;6249416;22;20381;-89
2023/12/31 03:40:28;;;;;;;2.27;1.83;;;;;;;;;;6249530;22;20384;-89
2023/12/31 03:42:54;;;;;;;2.60;1.70;;;;;;;;;;6251021;22;20389;-89
2023/12/31 03:45:20;;;;;;;1.90;1.80;;;;;;;;;;6250161;22;20419;-89
2023/12/31 03:47:46;;;;;;;1.70;1.60;;;;;;;;;;6276343;22;20876;-88
2023/12/31 03:50:12;;;;;;;3.03;2.07;;;;;;;;;;6249850;22;20423;-90
2023/12/31 03:52:38;;;;;;;2.30;2.10;;;;;;;;;;6251777;22;20399;-90
2023/12/31 03:55:05;;;;;;;2.47;1.80;;;;;;;;;;6250455;22;20384;-89
2023/12/31 03:57:31;;;;;;;2.63;2.03;;;;;;;;;;6250721;22;20385;-89
2023/12/31 03:59:57;;;;;;;2.73;1.73;;;;;;;;;;6276110;22;20415;-89
2023/12/31 04:02:23;;;;;;;2.17;1.97;;;;;;;;;;6250779;22;20441;-88
2023/12/31 04:04:49;;;;;;;3.23;1.83;;;;;;;;;;6249145;22;20508;-90
2023/12/31 04:07:15;;;;;;;1.67;1.57;;;;;;;;;;6250887;22;20380;-89
2023/12/31 04:09:41;;;;;;;2.43;2.10;;;;;;;;;;6250112;22;20423;-89
2023/12/31 04:12:07;;;;;;;1.67;1.50;;;;;;;;;;6251002;22;20381;-88
2023/12/31 04:14:33;;;;;;;2.63;1.90;;;;;;;;;;6250795;22;20387;-89
2023/12/31 04:16:59;;;;;;;3.90;2.20;;;;;;;;;;6251143;22;20468;-89
2023/12/31 04:19:25;;;;;;;3.10;2.00;;;;;;;;;;6251511;22;20449;-88
2023/12/31 04:21:51;;;;;;;2.00;1.80;;;;;;;;;;6252946;22;20731;-88
2023/12/31 04:24:17;;;;;;;1.83;1.70;;;;;;;;;;6251454;22;20384;-89
2023/12/31 04:26:46;;;;;;;4.63;2.23;;;;;;;;;;6252951;22;20405;-89
2023/12/31 04:29:12;;;;;;;2.17;1.67;;;;;;;;;;6251549;22;20712;-88
2023/12/31 04:31:46;;;;;;;3.33;1.50;;;;;;;;;;6251549;22;20427;-88
2023/12/31 04:34:12;;;;;;;4.50;2.20;;;;;;;;;;6274854;22;20848;-88
2023/12/31 04:36:38;;;;;;;1.93;1.80;;;;;;;;;;6251771;22;20381;-89
2023/12/31 04:39:04;;;;;;;1.80;1.70;;;;;;;;;;6250957;22;21211;-88
2023/12/31 04:41:30;;;;;;;1.90;1.73;;;;;;;;;;6254908;22;20385;-90
2023/12/31 04:43:56;;;;;;;2.30;1.77;;;;;;;;;;6253520;22;20692;-89
2023/12/31 04:46:22;;;;;;;6.37;2.13;;;;;;;;;;6252689;22;20380;-89
2023/12/31 04:48:48;;;;;;;1.67;1.57;;;;;;;;;;6252584;22;20450;-89
2023/12/31 04:51:30;;;;;;;2.43;2.10;;;;;;;;;;6253644;22;20853;-88
2023/12/31 04:53:56;;;;;;;1.87;1.40;;;;;;;;;;6252558;22;20397;-89
2023/12/31 04:56:22;;;;;;;2.13;1.70;;;;;;;;;;6252646;22;20384;-89
2023/12/31 04:58:52;;;;;;;2.10;1.77;;;;;;;;;;6252239;22;20497;-89
2023/12/31 05:01:18;;;;;;;4.27;2.47;;;;;;;;;;6280525;22;20462;-88
2023/12/31 05:03:45;;;;;;;2.40;1.60;;;;;;;;;;6252250;22;20385;-89
2023/12/31 05:06:12;;;;;;;2.30;2.10;;;;;;;;;;6253684;22;20397;-89
2023/12/31 05:08:38;;;;;;;1.67;1.57;;;;;;;;;;6253186;22;20492;-89
2023/12/31 05:11:04;;;;;;;1.50;1.40;;;;;;;;;;6252889;22;20365;-88
2023/12/31 05:13:32;;;;;;;1.73;1.50;;;;;;;;;;6252838;22;20697;-89
2023/12/31 05:15:58;;;;;;;2.10;1.90;;;;;;;;;;6253412;22;20418;-88
2023/12/31 05:18:24;;;;;;;1.67;1.40;;;;;;;;;;6252217;22;20380;-88
2023/12/31 05:20:50;;;;;;;1.90;1.80;;;;;;;;;;6278806;22;20388;-88
2023/12/31 05:23:16;;;;;;;2.20;1.37;;;;;;;;;;6251832;22;20368;-88
2023/12/31 05:25:42;;;;;;;2.03;1.47;;;;;;;;;;6253457;22;20426;-88
2023/12/31 05:28:08;;;;;;;2.03;1.63;;;;;;;;;;6252831;22;20428;-89
2023/12/31 05:30:34;;;;;;;1.97;1.77;;;;;;;;;;6253115;22;20381;-89
2023/12/31 05:33:00;;;;;;;1.87;1.77;;;;;;;;;;6253067;22;20902;-89
2023/12/31 05:35:26;;;;;;;2.50;1.50;;;;;;;;;;6252735;22;20369;-90
2023/12/31 05:37:52;;;;;;;2.20;1.53;;;;;;;;;;6250847;22;20735;-88
2023/12/31 05:40:18;;;;;;;1.73;1.53;;;;;;;;;;6252179;22;20470;-89
2023/12/31 05:42:44;;;;;;;1.80;1.70;;;;;;;;;;6253541;22;20378;-88
2023/12/31 05:45:10;;;;;;;2.37;2.07;;;;;;;;;;6252326;22;20385;-89
2023/12/31 05:47:36;;;;;;;1.80;1.70;;;;;;;;;;6252320;22;20434;-89
2023/12/31 05:50:02;;;;;;;1.63;1.53;;;;;;;;;;6251678;22;20910;-89
2023/12/31 05:52:28;;;;;;;1.43;1.33;;;;;;;;;;6252283;22;20393;-88
2023/12/31 05:54:54;;;;;;;2.07;1.67;;;;;;;;;;6251383;22;20385;-89
2023/12/31 05:57:20;;;;;;;4.80;1.97;;;;;;;;;;6252703;22;20972;-88
2023/12/31 05:59:46;;;;;;;2.60;1.77;;;;;;;;;;6252768;22;20377;-88
2023/12/31 06:02:12;;;;;;;1.50;1.40;;;;;;;;;;6251607;22;20378;-89
2023/12/31 06:04:38;;;;;;;2.80;2.10;;;;;;;;;;6278227;22;20377;-89
2023/12/31 06:07:04;;;;;;;1.50;1.40;;;;;;;;;;6252379;22;20381;-88
2023/12/31 06:09:30;;;;;;;1.53;1.20;;;;;;;;;;6251701;22;20424;-90
2023/12/31 06:11:56;;;;;;;1.73;1.60;;;;;;;;;;6252919;22;20452;-88
2023/12/31 06:14:22;;;;;;;1.77;1.40;;;;;;;;;;6251356;22;20408;-89
2023/12/31 06:16:48;;;;;;;2.90;1.90;;;;;;;;;;6252004;22;20382;-90
2023/12/31 06:19:14;;;;;;;1.60;1.50;;;;;;;;;;6276963;22;20404;-89
2023/12/31 06:21:40;;;;;;;5.37;1.43;;;;;;;;;;6253209;22;20412;-88
2023/12/31 06:24:06;;;;;;;1.30;1.20;;;;;;;;;;6276464;22;20960;-89
2023/12/31 06:26:32;;;;;;;2.00;1.50;;;;;;;;;;6252081;22;20384;-89
2023/12/31 06:28:58;;;;;;;1.10;1.00;;;;;;;;;;6252534;22;20512;-88
2023/12/31 06:31:24;;;;;;;1.73;1.47;;;;;;;;;;6253326;22;20461;-88
2023/12/31 06:33:51;;;;;;;3.27;1.53;;;;;;;;;;6275694;22;20369;-88
2023/12/31 06:36:19;;;;;;;2.47;1.70;;;;;;;;;;6252920;22;20384;-89
2023/12/31 06:38:45;;;;;;;2.00;1.30;;;;;;;;;;6251069;22;20491;-88
2023/12/31 06:41:11;;;;;;;4.27;2.47;;;;;;;;;;6276619;22;20386;-89
2023/12/31 06:43:38;;;;;;;1.83;1.47;;;;;;;;;;6251950;22;20405;-89
2023/12/31 06:46:05;;;;;;;1.20;1.10;;;;;;;;;;6275918;22;20967;-88
2023/12/31 06:48:31;;;;;;;2.30;1.60;;;;;;;;;;6253175;22;20425;-89
2023/12/31 06:50:57;;;;;;;2.20;2.00;;;;;;;;;;6251610;22;20728;-89
2023/12/31 06:53:23;;;;;;;0.90;0.90;;;;;;;;;;6252058;22;20396;-89
2023/12/31 06:55:49;;;;;;;1.97;1.77;;;;;;;;;;6251511;22;20389;-89
2023/12/31 06:58:15;;;;;;;2.10;1.47;;;;;;;;;;6278736;22;20677;-88
2023/12/31 07:00:41;;;;;;;1.60;1.50;;;;;;;;;;6250255;22;20385;-89
2023/12/31 07:03:07;;;;;;;1.63;1.53;;;;;;;;;;6277708;22;20395;-90
2023/12/31 07:05:33;;;;;;;1.73;1.47;;;;;;;;;;6251970;22;20362;-91
2023/12/31 07:07:59;;;;;;;2.70;1.33;;;;;;;;;;6253766;22;20420;-90
2023/12/31 07:10:25;;;;;;;3.30;1.80;;;;;;;;;;6253022;22;20378;-90
2023/12/31 07:12:52;;;;;;;1.70;1.50;;;;;;;;;;6278153;22;20380;-89
2023/12/31 07:15:18;;;;;;;1.30;1.20;;;;;;;;;;6254666;22;20914;-90
2023/12/31 07:17:44;;;;;;;3.63;1.73;;;;;;;;;;6278287;22;20350;-90
2023/12/31 07:20:11;;;;;;;2.30;1.30;;;;;;;;;;6253227;22;20412;-90
2023/12/31 07:22:38;;;;;;;2.73;2.00;;;;;;;;;;6278858;22;20361;-89
2023/12/31 07:25:04;;;;;;;2.67;2.47;;;;;;;;;;6279208;22;20400;-91
2023/12/31 07:27:30;;;;;;;2.40;1.63;;;;;;;;;;6255296;22;20416;-90
2023/12/31 07:29:56;;;;;;;3.10;1.87;;;;;;;;;;6251733;22;20397;-90
2023/12/31 07:32:22;;;;;;;2.47;2.27;;;;;;;;;;6251929;22;20377;-90
2023/12/31 07:34:48;;;;;;;1.97;1.57;;;;;;;;;;6252037;22;20420;-90
2023/12/31 07:37:14;;;;;;;2.03;1.50;;;;;;;;;;6252131;22;20475;-90
2023/12/31 07:39:43;;;;;;;2.90;1.70;;;;;;;;;;6252416;22;20689;-90
2023/12/31 07:42:09;;;;;;;2.83;1.70;;;;;;;;;;6251734;22;20457;-90
2023/12/31 07:44:35;;;;;;;1.53;1.30;;;;;;;;;;6251582;22;20443;-90
2023/12/31 07:47:03;;;;;;;1.53;1.43;;;;;;;;;;6253035;22;20381;-90
2023/12/31 07:49:30;;;;;;;2.20;1.63;;;;;;;;;;6280740;22;20428;-90
2023/12/31 07:51:56;;;;;;;1.30;1.00;;;;;;;;;;6257071;22;20442;-90
2023/12/31 07:54:23;;;;;;;2.23;1.63;;;;;;;;;;6254030;22;20389;-91
2023/12/31 07:56:49;;;;;;;2.07;1.70;;;;;;;;;;6254260;22;20386;-90
2023/12/31 07:59:15;;;;;;;2.70;1.90;;;;;;;;;;6279632;22;20454;-89
2023/12/31 08:01:41;;;;;;;1.23;1.13;;;;;;;;;;6258312;22;20378;-90
2023/12/31 08:04:08;;;;;;;1.63;1.50;;;;;;;;;;6255471;22;20381;-89
2023/12/31 08:06:34;;;;;;;1.97;1.77;;;;;;;;;;6256422;22;20388;-90
2023/12/31 08:09:00;;;;;;;3.73;2.20;;;;;;;;;;6255569;22;20421;-89
2023/12/31 08:11:26;;;;;;;1.63;1.50;;;;;;;;;;6283149;22;20385;-90
2023/12/31 08:13:52;;;;;;;2.23;2.10;;;;;;;;;;6255451;22;20393;-90
2023/12/31 08:16:19;;;;;;;1.83;1.63;;;;;;;;;;6258747;22;20365;-90
2023/12/31 08:18:45;;;;;;;2.60;1.10;;;;;;;;;;6255979;22;20388;-89
2023/12/31 08:21:11;;;;;;;2.70;1.50;;;;;;;;;;6257093;22;20397;-90
2023/12/31 08:23:37;;;;;;;1.53;1.30;;;;;;;;;;6256864;22;20393;-90
2023/12/31 08:26:07;;;;;;;2.10;1.33;;;;;;;;;;6257278;22;20445;-90
2023/12/31 08:28:33;;;;;;;1.73;1.60;;;;;;;;;;6258593;22;20829;-90
2023/12/31 08:30:59;;;;;;;2.23;1.53;;;;;;;;;;6255955;22;20484;-89
2023/12/31 08:33:26;;;;;;;2.10;1.70;;;;;;;;;;6281629;22;20384;-90
2023/12/31 08:35:52;;;;;;;1.30;1.20;;;;;;;;;;6282067;22;20382;-90
2023/12/31 08:38:18;;;;;;;1.67;1.57;;;;;;;;;;6282256;22;20384;-90
2023/12/31 08:40:44;;;;;;;2.53;1.80;;;;;;;;;;6256146;22;20388;-90
2023/12/31 08:43:10;;;;;;;1.50;1.40;;;;;;;;;;6226485;22;20424;-90
2023/12/31 08:45:39;;;;;;;1.40;1.30;;;;;;;;;;6199379;23;20382;-90
2023/12/31 08:48:07;;;;;;;1.63;1.30;;;;;;;;;;6201904;22;20430;-90
2023/12/31 08:50:33;;;;;;;1.80;1.70;;;;;;;;;;6199422;23;20402;-90
2023/12/31 08:52:59;;;;;;;2.90;1.63;;;;;;;;;;6200548;23;20413;-90
2023/12/31 08:55:25;;;;;;;2.97;1.40;;;;;;;;;;6199728;22;20873;-90
2023/12/31 08:57:51;;;;;;;2.40;1.33;;;;;;;;;;6200766;23;20382;-90
2023/12/31 09:00:17;;;;;;;2.50;2.20;;;;;;;;;;6197850;22;20874;-90
2023/12/31 09:02:43;;;;;;;2.47;1.70;;;;;;;;;;6199120;23;20784;-90
2023/12/31 09:05:09;;;;;;;2.10;1.50;;;;;;;;;;6199166;23;20382;-90
2023/12/31 09:07:35;;;;;;;1.73;1.30;;;;;;;;;;6223314;23;20367;-90
2023/12/31 09:10:04;;;;;;;2.73;1.70;;;;;;;;;;6198473;23;20386;-90
2023/12/31 09:12:30;;;;;;;2.07;1.70;;;;;;;;;;6196570;23;20371;-90
2023/12/31 09:14:57;;;;;;;1.60;1.50;;;;;;;;;;6247072;22;20377;-91
2023/12/31 09:17:22;;;;;;;1.40;1.30;;;;;;;;;;6280427;22;20452;-89
2023/12/31 09:19:48;;;;;;;1.43;1.33;;;;;;;;;;6279867;22;20368;-89
2023/12/31 09:22:14;;;;;;;1.73;1.50;;;;;;;;;;6258792;22;20413;-89
2023/12/31 09:24:41;;;;;;;4.23;2.30;;;;;;;;;;6261032;22;20391;-90
2023/12/31 09:27:07;;;;;;;1.70;1.50;;;;;;;;;;6256962;22;20388;-92
2023/12/31 09:29:34;;;;;;;2.10;1.57;;;;;;;;;;6257535;22;20413;-90
2023/12/31 09:32:00;;;;;;;1.73;1.63;;;;;;;;;;6259845;22;20377;-90
2023/12/31 09:34:26;;;;;;;2.80;1.40;;;;;;;;;;6258169;22;20381;-90
2023/12/31 09:36:52;;;;;;;2.37;1.50;;;;;;;;;;6259784;22;20385;-90
2023/12/31 09:39:18;;;;;;;2.67;1.60;;;;;;;;;;6257376;22;20397;-91
2023/12/31 09:41:45;;;;;;;3.53;1.97;;;;;;;;;;6283128;22;20365;-90
2023/12/31 09:44:11;;;;;;;1.87;1.60;;;;;;;;;;6255842;22;20409;-90
2023/12/31 09:46:38;;;;;;;1.60;1.50;;;;;;;;;;6259636;22;20365;-91
2023/12/31 09:49:04;;;;;;;1.93;1.40;;;;;;;;;;6259557;22;20470;-91
2023/12/31 09:51:30;;;;;;;4.03;1.63;;;;;;;;;;6256304;22;20373;-91
2023/12/31 09:53:59;;;;;;;1.50;1.40;;;;;;;;;;6259789;22;20751;-91
2023/12/31 09:56:25;;;;;;;1.67;1.40;;;;;;;;;;6258314;22;20370;-89
2023/12/31 09:58:51;;;;;;;4.13;2.00;;;;;;;;;;6259822;22;20377;-88
2023/12/31 10:01:18;;;;;;;1.63;1.50;;;;;;;;;;6261893;22;20384;-90
2023/12/31 10:03:44;;;;;;;2.20;1.87;;;;;;;;;;6262985;22;20460;-90
2023/12/31 10:06:10;;;;;;;1.80;1.70;;;;;;;;;;6261220;22;20459;-91
2023/12/31 10:08:36;;;;;;;1.77;1.37;;;;;;;;;;6262658;22;20417;-90
2023/12/31 10:11:02;;;;;;;2.83;1.63;;;;;;;;;;6260659;22;20447;-90
2023/12/31 10:13:30;;;;;;;1.90;1.30;;;;;;;;;;6263651;22;20377;-90
2023/12/31 10:15:56;;;;;;;4.00;1.40;;;;;;;;;;6259122;22;20381;-90
2023/12/31 10:18:29;;;;;;;2.77;1.30;;;;;;;;;;6263078;22;20388;-89
2023/12/31 10:20:55;;;;;;;1.77;1.30;;;;;;;;;;6257037;22;20464;-88
2023/12/31 10:23:21;;;;;;;2.43;1.60;;;;;;;;;;6258884;22;20385;-91
2023/12/31 10:25:47;;;;;;;1.60;1.50;;;;;;;;;;6259545;22;20385;-91
2023/12/31 10:28:13;;;;;;;1.57;1.40;;;;;;;;;;6255203;22;20920;-91
2023/12/31 10:30:39;;;;;;;2.53;2.33;;;;;;;;;;6282582;22;20415;-90
2023/12/31 10:33:13;;;;;;;2.03;1.50;;;;;;;;;;6280841;22;20373;-90
2023/12/31 10:35:39;;;;;;;2.57;1.87;;;;;;;;;;6258835;22;20825;-90
2023/12/31 10:38:06;;;;;;;4.13;1.80;;;;;;;;;;6284533;22;20367;-91
2023/12/31 10:40:33;;;;;;;1.50;1.40;;;;;;;;;;6259278;22;20441;-90
2023/12/31 10:42:59;;;;;;;2.27;1.53;;;;;;;;;;6258677;22;20377;-89
2023/12/31 10:45:29;;;;;;;2.77;1.50;;;;;;;;;;6285473;22;20374;-90
2023/12/31 10:47:56;;;;;;;1.87;1.70;;;;;;;;;;6259120;22;20370;-91
2023/12/31 10:50:25;;;;;;;1.40;1.30;;;;;;;;;;6258728;22;20464;-91
2023/12/31 10:52:53;;;;;;;9.37;5.03;;;;;;;;;;6254651;22;20404;-91
2023/12/31 10:55:20;;;;;;;4.53;3.03;;;;;;;;;;6257392;22;20372;-90
2023/12/31 10:57:47;;;;;;;3.27;2.30;;;;;;;;;;6254370;22;20401;-91
2023/12/31 11:00:13;;;;;;;3.60;2.50;;;;;;;;;;6255719;22;20377;-91
2023/12/31 11:02:39;;;;;;;4.07;2.40;;;;;;;;;;6256187;22;20377;-90
2023/12/31 11:05:05;;;;;;;3.60;2.47;;;;;;;;;;6257913;22;20388;-91
2023/12/31 11:07:31;;;;;;;2.90;1.87;;;;;;;;;;6252690;22;20437;-91
2023/12/31 11:09:57;;;;;;;2.17;1.73;;;;;;;;;;6255257;22;20443;-91
2023/12/31 11:12:24;;;;;;;2.13;1.67;;;;;;;;;;6252753;22;20460;-90
2023/12/31 11:15:13;;;;;;;2.20;2.00;;;;;;;;;;6252394;22;20372;-90
2023/12/31 11:17:50;;;;;;;3.40;2.30;;;;;;;;;;6252069;22;20377;-91
2023/12/31 11:20:35;;;;;;;1.90;1.50;;;;;;;;;;6252417;22;20837;-90
2023/12/31 11:23:25;;;;;;;2.00;1.40;;;;;;;;;;6279167;22;20456;-91
2023/12/31 11:25:51;;;;;;;2.60;2.10;;;;;;;;;;6270704;22;20362;-90
2023/12/31 11:28:18;;;;;;;1.37;1.27;;;;;;;;;;6254372;22;20409;-90
2023/12/31 11:30:45;;;;;;;2.90;1.63;;;;;;;;;;6253223;22;20381;-90
2023/12/31 11:33:11;;;;;;;2.67;2.03;;;;;;;;;;6253388;22;20424;-90
2023/12/31 11:35:47;;;;;;;2.27;1.80;;;;;;;;;;6251810;22;20382;-89
2023/12/31 11:38:13;;;;;;;2.07;1.50;;;;;;;;;;6253411;22;20902;-91
2023/12/31 11:40:40;;;;;;;1.87;1.60;;;;;;;;;;6277533;22;20419;-89
2023/12/31 11:43:10;;;;;;;1.70;1.50;;;;;;;;;;6253705;22;20381;-91
2023/12/31 11:45:43;;;;;;;2.67;1.27;;;;;;;;;;6254902;22;20401;-90
2023/12/31 11:48:24;;;;;;;1.30;1.20;;;;;;;;;;6284138;22;20421;-90
2023/12/31 11:50:56;;;;;;;2.40;1.60;;;;;;;;;;6285007;22;20369;-92
2023/12/31 11:53:23;;;;;;;2.13;1.47;;;;;;;;;;6259436;22;20417;-91
2023/12/31 11:56:01;;;;;;;1.27;1.10;;;;;;;;;;6258368;22;20394;-92
2023/12/31 11:58:28;;;;;;;1.10;1.00;;;;;;;;;;6292566;22;20413;-92
2023/12/31 12:00:54;;;;;;;1.20;0.90;;;;;;;;;;6256103;22;20379;-90
2023/12/31 12:03:20;;;;;;;2.70;1.53;;;;;;;;;;6256400;22;20374;-90
2023/12/31 12:05:47;;;;;;;1.17;1.07;;;;;;;;;;6254640;22;20381;-90
2023/12/31 12:08:13;;;;;;;1.00;0.90;;;;;;;;;;6282705;22;20476;-90
2023/12/31 12:10:39;;;;;;;1.37;1.27;;;;;;;;;;6257542;22;20448;-91
2023/12/31 12:13:05;;;;;;;2.17;1.00;;;;;;;;;;6255902;22;20892;-92
2023/12/31 12:15:35;;;;;;;2.13;1.60;;;;;;;;;;6258731;22;20937;-91
2023/12/31 12:18:03;;;;;;;1.07;0.90;;;;;;;;;;6256417;22;20385;-92
2023/12/31 12:20:29;;;;;;;1.13;0.80;;;;;;;;;;6258379;22;20388;-91
2023/12/31 12:22:56;;;;;;;1.00;0.70;;;;;;;;;;6254439;22;20381;-91
2023/12/31 12:25:22;;;;;;;1.77;1.30;;;;;;;;;;6259244;22;20381;-92
2023/12/31 12:27:49;;;;;;;3.77;1.17;;;;;;;;;;6257090;22;20456;-92
2023/12/31 12:30:16;;;;;;;1.53;0.97;;;;;;;;;;6260543;22;20443;-92
2023/12/31 12:32:46;;;;;;;1.70;1.27;;;;;;;;;;6280581;22;20361;-91
2023/12/31 12:35:13;;;;;;;2.40;1.20;;;;;;;;;;6257021;22;20373;-92
2023/12/31 12:37:39;;;;;;;1.20;0.93;;;;;;;;;;6255997;22;20377;-91
2023/12/31 12:40:06;;;;;;;1.50;1.00;;;;;;;;;;6285679;22;20365;-91
2023/12/31 12:42:32;;;;;;;1.60;1.20;;;;;;;;;;6283334;22;20874;-92
2023/12/31 12:44:58;;;;;;;0.87;0.77;;;;;;;;;;6260293;22;20393;-91
2023/12/31 12:47:24;;;;;;;1.23;1.07;;;;;;;;;;6257440;22;20950;-90
2023/12/31 12:49:50;;;;;;;2.70;1.20;;;;;;;;;;6256717;22;20412;-91
2023/12/31 12:52:16;;;;;;;4.30;3.87;;;;;;;;;;6258228;22;20377;-92
2023/12/31 12:54:42;;;;;;;1.30;0.90;;;;;;;;;;6258613;22;20424;-92
2023/12/31 12:57:08;;;;;;;2.10;1.60;;;;;;;;;;6253680;22;20381;-91
2023/12/31 12:59:34;;;;;;;1.67;1.50;;;;;;;;;;6261664;22;20384;-92
2023/12/31 13:02:02;;;;;;;1.70;1.60;;;;;;;;;;6261791;22;20392;-92
2023/12/31 13:04:28;;;;;;;2.43;1.60;;;;;;;;;;6263518;22;20470;-91
2023/12/31 13:06:57;;;;;;;1.43;1.20;;;;;;;;;;6262993;22;20374;-89
2023/12/31 13:09:24;;;;;;;1.43;1.33;;;;;;;;;;6263495;22;20425;-92
2023/12/31 13:11:50;;;;;;;2.30;1.30;;;;;;;;;;6264147;22;20452;-91
2023/12/31 13:14:16;;;;;;;1.00;0.70;;;;;;;;;;6263008;22;20386;-92
2023/12/31 13:16:42;;;;;;;1.80;1.17;;;;;;;;;;6262729;22;20726;-90
2023/12/31 13:19:08;;;;;;;1.80;1.53;;;;;;;;;;6259692;22;20381;-91
2023/12/31 13:21:34;;;;;;;1.57;1.00;;;;;;;;;;6259801;22;20391;-90
2023/12/31 13:24:00;;;;;;;1.57;1.10;;;;;;;;;;6260045;22;20381;-91
2023/12/31 13:26:26;;;;;;;1.20;1.03;;;;;;;;;;6259438;22;20403;-91
2023/12/31 13:28:52;;;;;;;1.40;1.30;;;;;;;;;;6258284;22;20417;-91
2023/12/31 13:31:23;;;;;;;1.10;1.00;;;;;;;;;;6227233;23;20410;-91
2023/12/31 13:33:50;;;;;;;1.07;0.97;;;;;;;;;;6202557;22;20836;-90
2023/12/31 13:36:16;;;;;;;1.70;1.17;;;;;;;;;;6202944;22;20386;-91
2023/12/31 13:38:42;;;;;;;1.47;1.37;;;;;;;;;;6200692;22;20398;-91
2023/12/31 13:41:08;;;;;;;1.10;1.00;;;;;;;;;;6203288;23;20382;-92
2023/12/31 13:43:34;;;;;;;1.10;1.00;;;;;;;;;;6203574;23;20424;-91
2023/12/31 13:46:00;;;;;;;2.20;1.53;;;;;;;;;;6203510;23;20500;-92
2023/12/31 13:48:26;;;;;;;1.20;0.90;;;;;;;;;;6201676;23;20422;-92
2023/12/31 13:50:52;;;;;;;2.30;0.93;;;;;;;;;;6204359;23;20385;-92
2023/12/31 13:53:19;;;;;;;1.97;0.90;;;;;;;;;;6227550;23;20509;-94
2023/12/31 13:55:45;;;;;;;0.80;0.70;;;;;;;;;;6205017;23;20355;-92
2023/12/31 13:58:11;;;;;;;1.07;0.80;;;;;;;;;;6203479;23;20371;-92
2023/12/31 14:00:38;;;;;;;1.50;1.40;;;;;;;;;;6204291;23;20382;-91
2023/12/31 14:03:04;;;;;;;1.63;1.30;;;;;;;;;;6250448;22;20377;-92
2023/12/31 14:05:32;;;;;;;1.67;1.30;;;;;;;;;;6260525;22;20419;-91
2023/12/31 14:07:58;;;;;;;2.30;0.80;;;;;;;;;;6263100;22;20476;-92
2023/12/31 14:10:24;;;;;;;1.80;1.07;;;;;;;;;;6261910;22;20407;-91
2023/12/31 14:12:50;;;;;;;1.20;1.03;;;;;;;;;;6260788;22;20435;-91
2023/12/31 14:15:17;;;;;;;1.27;0.97;;;;;;;;;;6259060;22;20412;-92
2023/12/31 14:17:43;;;;;;;2.10;1.53;;;;;;;;;;6261664;22;20408;-91
2023/12/31 14:20:09;;;;;;;1.50;1.20;;;;;;;;;;6261297;22;20388;-91
2023/12/31 14:22:35;;;;;;;2.20;1.70;;;;;;;;;;6262985;22;20389;-90
2023/12/31 14:25:06;;;;;;;1.43;1.13;;;;;;;;;;6260125;22;20477;-96
2023/12/31 14:27:32;;;;;;;1.40;1.30;;;;;;;;;;6238746;22;20849;-92
2023/12/31 14:29:59;;;;;;;1.27;0.87;;;;;;;;;;6265310;22;20433;-91
2023/12/31 14:32:25;;;;;;;0.90;0.80;;;;;;;;;;6288511;22;20417;-93
2023/12/31 14:34:52;;;;;;;2.50;1.30;;;;;;;;;;6262359;22;20386;-90
2023/12/31 14:37:18;;;;;;;1.10;1.00;;;;;;;;;;6263891;22;20377;-92
2023/12/31 14:39:44;;;;;;;3.40;1.93;;;;;;;;;;6269913;22;20384;-92